• Join FlightAware (Why Join?)
  • Login
  • US Flag 
04:33PM EDT


 

Airport Tracker/Info


-or-


 

Live Flight TrackerFlight Track Log ✈ SKW4746 ✈ 06-Sep-2013 ✈ KSLC - KMSO

Flight Track Log - Related Links

Times and Time Zones

All times are in EDT time to prevent confusion due to time zone crossing. See the SKW4746 flight status page for this flight to view local times or setup timezone preferences in your user account.

Time Position Orientation Groundspeed Altitude Reporting Facility
EDT Latitude Longitude Course Direction KTS MPH feet Rate Location/Type
12:08PM 40.7736 -111.9764 50° Northeast 172 198 4,800  Level Salt Lake Center
12:09PM 40.7475 -111.9967 210° Southwest 201 231 5,900 1,680 Climbing Salt Lake Center
12:10PM 40.7661 -112.0800 286° West 263 303 7,600 1,680 Climbing Salt Lake Center
12:11PM 40.8233 -112.1522 316° Northwest 282 325 9,400 1,740 Climbing Salt Lake Center
12:11PM 40.8292 -112.1614 310° West 289 333 9,600 1,800 Climbing Salt Lake Center
12:12PM 41.0623 -112.0399 49° Northeast  Level FlightAware Approximate
12:12PM 40.8878 -112.2236 321° Northwest 301 346 11,300  Level Salt Lake Center
12:13PM 41.1428 -111.9233 50° Northeast  Level FlightAware Approximate
12:13PM 40.9642 -112.1842 21° North 322 371 13,200  Level Salt Lake Center
12:14PM 41.0278 -112.0942 47° Northeast 334 384 14,400 1,200 Climbing Salt Lake Center
12:15PM 41.0975 -111.9958 47° Northeast 359 413 15,700 1,260 Climbing Salt Lake Center
12:16PM 41.1692 -111.8953 47° Northeast 367 422 17,100 1,320 Climbing Salt Lake Center
12:17PM 41.2500 -111.8083 39° Northeast 369 425 18,500 1,380 Climbing Salt Lake Center
12:18PM 41.3667 -111.7428 23° Northeast 379 436 20,000 1,200 Climbing Salt Lake Center
12:19PM 41.4694 -111.7697 349° North 380 437 21,000 780 Climbing Salt Lake Center
12:20PM 41.5736 -111.8097 344° North 389 448 21,700 660 Climbing Salt Lake Center
12:21PM 41.6806 -111.8514 344° North 401 461 22,400 660 Climbing Salt Lake Center
12:22PM 41.7906 -111.8944 344° North 413 475 23,100 720 Climbing Salt Lake Center
12:23PM 41.9214 -111.9461 344° North 409 471 24,000 780 Climbing Salt Lake Center
12:24PM 42.0358 -111.9903 344° North 422 486 24,700 660 Climbing Salt Lake Center
12:25PM 42.1481 -112.0353 343° North 422 486 25,400 660 Climbing Salt Lake Center
12:26PM 42.2619 -112.0803 344° North 425 489 26,100 660 Climbing Salt Lake Center
12:27PM 42.3750 -112.1267 343° North 426 490 26,800 540 Climbing Salt Lake Center
12:28PM 42.4894 -112.1731 343° North 428 493 27,300 480 Climbing Salt Lake Center
12:29PM 42.6292 -112.2286 344° North 434 499 27,900 480 Climbing Salt Lake Center
12:30PM 42.7469 -112.2769 343° North 441 507 28,400 480 Climbing Salt Lake Center
12:31PM 42.8661 -112.3258 343° North 446 513 28,900 480 Climbing Salt Lake Center
12:32PM 42.9867 -112.3733 344° North 450 518 29,400 480 Climbing Salt Lake Center
12:33PM 43.1072 -112.4211 344° North 451 519 29,900 480 Climbing Salt Lake Center
12:34PM 43.2272 -112.4706 343° North 451 519 30,400 480 Climbing Salt Lake Center
12:35PM 43.3711 -112.5297 343° North 450 518 31,000 480 Climbing Salt Lake Center
12:36PM 43.4911 -112.5781 344° North 450 518 31,500 360 Climbing Salt Lake Center
12:38PM 43.6108 -112.6267 344° North 450 518 31,800 240 Climbing Salt Lake Center
12:39PM 43.7317 -112.6717 345° North 449 517 32,000 60 Climbing Salt Lake Center
12:40PM 43.8689 -112.7378 341° North 460 529 32,000  Level Salt Lake Center
12:41PM 43.9936 -112.7892 343° North 466 536 32,000  Level Salt Lake Center
12:42PM 44.1172 -112.8403 343° North 466 536 32,000  Level Salt Lake Center
12:43PM 44.2411 -112.8919 343° North 465 535 32,000  Level Salt Lake Center
12:44PM 44.3650 -112.9458 343° North 467 537 32,000  Level Salt Lake Center
12:45PM 44.5119 -113.0089 343° North 463 533 32,000  Level Salt Lake Center
12:46PM 44.6344 -113.0617 343° North 462 532 32,000  Level Salt Lake Center
12:47PM 44.7575 -113.1147 343° North 464 534 32,000  Level Salt Lake Center
12:48PM 44.8842 -113.1708 343° North 460 529 32,000  Level Salt Lake Center
12:49PM 45.0042 -113.2233 343° North 469 540 32,000  Level Salt Lake Center
12:50PM 45.1458 -113.2853 343° North 461 531 32,000  Level Salt Lake Center
12:51PM 45.2692 -113.3403 343° North 457 526 32,000  Level Salt Lake Center
12:52PM 45.3997 -113.3981 343° North 473 544 32,000 -420 Level Salt Lake Center
12:53PM 45.5264 -113.4547 343° North 469 540 31,200 -1,560 Descending Salt Lake Center
12:54PM 45.6525 -113.5111 343° North 466 536 28,900 -2,280 Descending Salt Lake Center
12:55PM 45.7728 -113.5644 343° North 451 519 26,600 -2,160 Descending Salt Lake Center
12:56PM 45.8883 -113.6167 343° North 433 498 24,500 -2,040 Descending Salt Lake Center
12:57PM 46.0008 -113.6678 342° North 415 478 22,400 -2,040 Descending Salt Lake Center
12:58PM 46.1047 -113.7142 343° North 397 457 20,400 -2,040 Descending Salt Lake Center
12:59PM 46.2125 -113.7622 343° North 382 440 18,200 -2,040 Descending Salt Lake Center
01:00PM 46.3167 -113.8125 342° North 370 426 16,300 -1,860 Descending Salt Lake Center
01:01PM 46.4106 -113.8539 343° North 357 411 14,400 -1,980 Descending Salt Lake Center
01:02PM 46.5136 -113.9031 342° North 362 417 12,300 -1,860 Descending Salt Lake Center
01:03PM 46.6047 -113.9447 343° North 347 399 10,700 -1,620 Descending Salt Lake Center
01:04PM 46.6878 -113.9833 342° North 321 369 9,000 -960 Descending Salt Lake Center
01:05PM 46.7642 -114.0147 344° North 263 303 8,800 -840 Descending Salt Lake Center
01:06PM 46.8206 -114.0139 North 209 241 7,300 -2,040 Descending Salt Lake Center
01:07PM 46.8672 -114.0100 North 166 191 4,700 -1,800 Descending Salt Lake Center
01:08PM 46.8947 -114.0558 311° West 151 174 3,600 -780 Descending Salt Lake Center
01:09PM 46.9178 -114.0950 311° West 147 169 3,200 -420 Descending Salt Lake Center